Time;durP1;ratioP1;P1;durP2;ratioP2;P2;SDS_P1;SDS_P2;PMS_P1;PMS_P2;Temp;Humidity;BMP_temperature;BMP_pressure;BME280_temperature;BME280_humidity;BME280_pressure;Samples;Min_cycle;Max_cycle;Signal;HPM_P1;HPM_P2
2022/04/08 00:02:05;;;;;;;7.40;4.40;;;;;;;12.17;60.61;97935.06;4452899;32;33437;-70
2022/04/08 00:04:33;;;;;;;6.95;4.20;;;;;;;12.79;58.51;97945.41;4452538;32;33687;-70
2022/04/08 00:07:01;;;;;;;4.93;3.20;;;;;;;12.82;58.39;97950.22;4453317;32;34132;-70
2022/04/08 00:09:28;;;;;;;5.70;2.83;;;;;;;13.11;57.41;97949.03;4453049;32;34077;-70
2022/04/08 00:11:57;;;;;;;5.00;3.20;;;;;;;12.54;58.73;97952.22;4452782;32;34501;-72
2022/04/08 00:14:24;;;;;;;4.10;2.70;;;;;;;11.98;60.55;97947.94;4438165;32;34728;-69
2022/04/08 00:16:52;;;;;;;4.43;3.22;;;;;;;12.10;60.04;97957.22;4462866;32;34156;-70
2022/04/08 00:19:20;;;;;;;3.95;2.72;;;;;;;12.33;59.14;97949.13;4468406;32;34056;-70
2022/04/08 00:21:50;;;;;;;4.97;3.20;;;;;;;12.22;59.54;97955.91;4467867;32;34435;-70
2022/04/08 00:24:18;;;;;;;4.50;2.90;;;;;;;11.54;61.99;97955.53;4468237;32;35103;-69
2022/04/08 00:26:46;;;;;;;5.00;2.72;;;;;;;12.08;60.01;97942.31;4457972;32;34171;-71
2022/04/08 00:29:14;;;;;;;5.32;2.85;;;;;;;12.24;59.50;97945.53;4450025;32;85435;-70
2022/04/08 00:31:42;;;;;;;4.95;3.00;;;;;;;12.42;59.32;97938.34;4438836;32;33858;-71
2022/04/08 00:34:10;;;;;;;5.15;3.03;;;;;;;12.46;59.04;97934.72;4452230;32;33957;-71
2022/04/08 00:36:37;;;;;;;4.87;2.87;;;;;;;11.86;61.06;97948.44;4452745;32;33948;-70
2022/04/08 00:39:05;;;;;;;4.90;3.20;;;;;;;11.86;61.24;97959.31;4452574;32;34267;-71
2022/04/08 00:41:33;;;;;;;4.30;2.78;;;;;;;12.43;59.82;97957.06;4452339;32;34507;-70
2022/04/08 00:44:00;;;;;;;4.57;3.08;;;;;;;11.82;61.56;97950.16;4452240;32;34677;-70
2022/04/08 00:46:28;;;;;;;4.55;2.75;;;;;;;12.02;61.10;97955.19;4463178;32;34092;-71
2022/04/08 00:48:56;;;;;;;4.60;3.12;;;;;;;11.98;61.18;97939.81;4467730;32;34135;-70
2022/04/08 00:51:23;;;;;;;5.20;2.60;;;;;;;12.03;60.79;97936.97;4467215;32;33439;-69
2022/04/08 00:53:51;;;;;;;6.50;4.25;;;;;;;11.93;61.00;97953.50;4453510;32;33736;-70
2022/04/08 00:56:21;;;;;;;7.22;4.35;;;;;;;11.37;62.91;97968.88;4457725;32;33980;-71
2022/04/08 00:58:48;;;;;;;7.80;4.95;;;;;;;10.69;65.75;97968.31;4438414;32;34955;-69
2022/04/08 01:01:16;;;;;;;7.97;4.53;;;;;;;10.22;68.26;97957.22;4452140;32;33825;-72
2022/04/08 01:03:44;;;;;;;7.78;4.60;;;;;;;10.99;65.06;97952.66;4451533;32;34785;-69
2022/04/08 01:06:12;;;;;;;8.73;5.20;;;;;;;11.02;64.75;97958.31;4460916;32;34701;-69
2022/04/08 01:08:39;;;;;;;6.53;4.82;;;;;;;11.23;63.55;97961.50;4467577;32;34172;-69
2022/04/08 01:11:07;;;;;;;6.07;4.12;;;;;;;11.67;62.06;97967.53;4467419;32;34341;-71
2022/04/08 01:13:35;;;;;;;6.28;4.43;;;;;;;11.67;61.70;97968.34;4467108;32;33521;-69
2022/04/08 01:16:05;;;;;;;5.97;4.30;;;;;;;12.10;60.33;97978.97;4459496;32;34209;-70
2022/04/08 01:18:33;;;;;;;6.12;3.97;;;;;;;11.88;60.83;97978.88;4451802;32;34148;-69
2022/04/08 01:21:07;;;;;;;7.05;4.50;;;;;;;11.67;61.32;97981.91;4451966;32;33649;-70
2022/04/08 01:23:35;;;;;;;7.07;4.50;;;;;;;11.53;61.77;97977.56;4452690;32;34074;-70
2022/04/08 01:26:06;;;;;;;6.93;4.18;;;;;;;11.97;60.50;97995.28;4468112;32;35075;-70
2022/04/08 01:28:34;;;;;;;5.53;3.65;;;;;;;12.23;60.18;97992.88;4469596;32;34332;-70
2022/04/08 01:31:02;;;;;;;5.70;3.80;;;;;;;11.79;61.71;97999.62;4469633;32;34426;-70
2022/04/08 01:33:29;;;;;;;4.85;3.60;;;;;;;11.91;61.52;97997.28;4468959;32;34017;-72
2022/04/08 01:35:57;;;;;;;5.32;3.62;;;;;;;11.28;63.47;98013.00;4462424;32;34061;-70
2022/04/08 01:38:25;;;;;;;5.45;3.80;;;;;;;11.22;63.63;98006.03;4453589;32;35002;-70
2022/04/08 01:40:52;;;;;;;6.60;4.00;;;;;;;11.70;62.52;98032.94;4453956;32;33451;-71
2022/04/08 01:43:20;;;;;;;5.07;3.55;;;;;;;12.01;61.50;98045.22;4453695;32;33792;-69
2022/04/08 01:45:47;;;;;;;5.97;3.80;;;;;;;11.74;62.25;98035.06;4459218;32;34298;-71
2022/04/08 01:48:15;;;;;;;5.03;3.58;;;;;;;12.20;61.07;98045.13;4455259;32;34190;-71
2022/04/08 01:50:43;;;;;;;5.82;3.33;;;;;;;12.15;60.84;98054.19;4469581;32;33686;-70
2022/04/08 01:53:10;;;;;;;5.65;3.72;;;;;;;11.80;61.82;98052.88;4468880;32;33979;-71
2022/04/08 01:55:37;;;;;;;4.82;3.15;;;;;;;11.66;62.55;98069.97;4451976;32;34921;-71
2022/04/08 01:58:05;;;;;;;6.10;3.58;;;;;;;11.41;63.12;98062.22;4453955;32;34823;-70
2022/04/08 02:00:33;;;;;;;4.80;3.33;;;;;;;11.59;62.58;98061.38;4439832;32;34436;-71
2022/04/08 02:03:00;;;;;;;5.60;3.67;;;;;;;11.57;62.38;98051.91;4453353;32;33904;-70
2022/04/08 02:05:28;;;;;;;5.35;3.40;;;;;;;11.52;62.61;98052.00;4456533;32;34186;-72
2022/04/08 02:07:55;;;;;;;5.45;3.67;;;;;;;11.66;62.25;98060.97;4469094;32;34800;-71
2022/04/08 02:10:25;;;;;;;5.45;3.50;;;;;;;11.46;62.94;98073.00;4469290;32;33687;-69
2022/04/08 02:12:53;;;;;;;4.75;3.47;;;;;;;11.41;63.15;98090.19;4468988;32;34790;-70
2022/04/08 02:15:27;;;;;;;5.60;4.03;;;;;;;11.84;61.76;98103.63;4466796;32;34032;-70
2022/04/08 02:17:55;;;;;;;6.07;3.62;;;;;;;11.54;62.80;98110.34;4452388;32;33952;-70
2022/04/08 02:20:23;;;;;;;6.87;3.58;;;;;;;11.99;61.20;98113.47;4452591;32;33344;-70
2022/04/08 02:22:50;;;;;;;6.22;3.45;;;;;;;12.09;60.91;98110.56;4453657;32;33703;-70
2022/04/08 02:25:18;;;;;;;5.90;3.83;;;;;;;11.11;64.05;98105.00;4440483;32;33940;-71
2022/04/08 02:27:46;;;;;;;4.68;3.58;;;;;;;11.66;62.16;98105.28;4469688;32;33809;-70
2022/04/08 02:30:15;;;;;;;5.50;3.70;;;;;;;12.06;61.02;98083.97;4442890;32;34365;-69
2022/04/08 02:32:43;;;;;;;4.28;2.97;;;;;;;12.32;60.39;98064.47;4468735;32;33922;-70
2022/04/08 02:35:10;;;;;;;5.47;3.47;;;;;;;12.22;60.84;98060.00;4467858;32;33839;-71
2022/04/08 02:37:39;;;;;;;4.70;3.40;;;;;;;11.54;63.39;98076.97;4452558;32;34229;-70
2022/04/08 02:40:07;;;;;;;4.65;3.35;;;;;;;11.81;62.50;98089.81;4453407;32;33647;-70
2022/04/08 02:42:34;;;;;;;7.22;3.58;;;;;;;11.78;62.11;98098.56;4439678;32;33439;-69
2022/04/08 02:45:02;;;;;;;5.85;3.30;;;;;;;11.50;62.84;98104.69;4453162;32;33871;-70
2022/04/08 02:47:30;;;;;;;6.50;3.47;;;;;;;11.24;63.55;98106.97;4454172;32;34816;-71
2022/04/08 02:49:57;;;;;;;5.62;3.50;;;;;;;11.31;63.37;98112.03;4468886;32;33738;-70
2022/04/08 02:52:24;;;;;;;5.43;3.75;;;;;;;11.32;63.40;98118.28;4468377;32;33768;-69
2022/04/08 02:54:52;;;;;;;5.75;3.55;;;;;;;11.47;62.88;98126.22;4468763;32;35189;-70
2022/04/08 02:57:19;;;;;;;7.60;3.28;;;;;;;11.31;63.24;98132.97;4454698;32;34974;-71
2022/04/08 02:59:47;;;;;;;6.18;3.62;;;;;;;11.41;62.87;98135.53;4453535;32;33948;-69
2022/04/08 03:02:14;;;;;;;6.18;4.00;;;;;;;11.36;62.68;98152.72;4454574;32;33869;-70
2022/04/08 03:04:42;;;;;;;5.90;3.30;;;;;;;11.56;61.94;98169.81;4466125;32;34467;-71
2022/04/08 03:07:09;;;;;;;5.62;3.50;;;;;;;11.56;61.59;98169.81;4466006;32;34261;-70
2022/04/08 03:09:37;;;;;;;7.62;3.80;;;;;;;11.98;60.17;98168.09;4468812;32;34440;-69
2022/04/08 03:12:05;;;;;;;6.10;3.70;;;;;;;12.00;59.43;98165.91;4468912;32;34497;-69
2022/04/08 03:14:32;;;;;;;5.57;3.33;;;;;;;11.95;59.75;98177.66;4468676;32;34081;-70
2022/04/08 03:17:01;;;;;;;5.43;3.85;;;;;;;11.92;59.78;98180.97;4453297;32;34318;-69
2022/04/08 03:19:29;;;;;;;7.12;3.92;;;;;;;12.34;57.96;98170.22;4453297;32;33546;-70
2022/04/08 03:21:56;;;;;;;6.18;4.10;;;;;;;12.50;58.00;98182.44;4453311;32;33705;-69
2022/04/08 03:24:24;;;;;;;6.20;3.90;;;;;;;12.43;57.72;98182.03;4452988;32;34848;-71
2022/04/08 03:26:51;;;;;;;5.68;3.45;;;;;;;12.22;58.66;98182.38;4465885;32;34851;-70
2022/04/08 03:29:19;;;;;;;6.72;3.40;;;;;;;12.32;58.17;98195.00;4468752;32;33770;-70
2022/04/08 03:31:46;;;;;;;4.82;3.12;;;;;;;12.29;58.08;98201.84;4452792;32;34554;-69
2022/04/08 03:34:14;;;;;;;5.35;3.20;;;;;;;11.95;59.66;98204.84;4452883;32;35119;-70
2022/04/08 03:36:42;;;;;;;3.75;2.30;;;;;;;12.06;59.61;98211.72;4464473;32;33999;-70
2022/04/08 03:39:09;;;;;;;3.70;1.92;;;;;;;12.26;58.43;98218.75;4468760;32;34084;-70
2022/04/08 03:41:39;;;;;;;2.60;1.70;;;;;;;11.88;60.46;98226.16;4468426;32;34638;-69
2022/04/08 03:44:07;;;;;;;3.65;1.75;;;;;;;12.08;59.99;98234.00;4466830;32;34995;-70
2022/04/08 03:46:34;;;;;;;2.65;1.40;;;;;;;12.36;59.36;98231.38;4467556;32;33982;-71
2022/04/08 03:49:02;;;;;;;2.78;1.30;;;;;;;11.97;61.23;98240.69;4467934;32;33635;-71
2022/04/08 03:51:29;;;;;;;3.30;1.87;;;;;;;12.14;60.73;98242.88;4468784;32;34612;-71
2022/04/08 03:53:57;;;;;;;1.50;1.20;;;;;;;12.18;60.37;98251.25;4468256;32;34307;-71
2022/04/08 03:56:24;;;;;;;1.15;0.90;;;;;;;12.21;60.97;98251.47;4455062;32;34282;-71
2022/04/08 03:58:52;;;;;;;1.75;1.00;;;;;;;12.39;60.52;98266.13;4453144;32;33722;-70
2022/04/08 04:01:19;;;;;;;1.70;0.70;;;;;;;12.32;60.94;98266.50;4452904;32;34524;-69
2022/04/08 04:03:47;;;;;;;1.52;0.77;;;;;;;12.15;62.17;98279.03;4452565;32;33906;-70
2022/04/08 04:06:14;;;;;;;0.70;0.70;;;;;;;11.92;63.95;98259.78;4463940;32;34724;-71
2022/04/08 04:08:42;;;;;;;1.80;0.70;;;;;;;12.15;63.20;98268.97;4468465;32;33638;-69
2022/04/08 04:11:10;;;;;;;0.73;0.73;;;;;;;12.03;63.91;98266.69;4468084;32;33919;-69
2022/04/08 04:13:37;;;;;;;0.70;0.70;;;;;;;12.16;63.86;98264.31;4468004;32;33756;-72
2022/04/08 04:16:05;;;;;;;1.62;0.80;;;;;;;12.15;64.01;98270.87;4463784;32;34200;-71
2022/04/08 04:18:33;;;;;;;1.90;0.80;;;;;;;12.36;63.38;98272.16;4457352;32;33384;-71
2022/04/08 04:21:00;;;;;;;0.70;0.65;;;;;;;12.30;63.22;98266.00;4468282;32;33998;-70
2022/04/08 04:23:27;;;;;;;0.90;0.68;;;;;;;12.01;62.62;98270.81;4467850;32;34074;-74
2022/04/08 04:25:55;;;;;;;1.20;0.95;;;;;;;12.19;61.45;98274.62;4462505;32;34263;-75
2022/04/08 04:28:22;;;;;;;1.92;0.80;;;;;;;12.35;60.85;98280.63;4460963;32;33628;-73
2022/04/08 04:30:53;;;;;;;1.85;0.88;;;;;;;12.05;61.01;98283.53;4452123;32;33918;-72
2022/04/08 04:33:20;;;;;;;0.80;0.80;;;;;;;12.55;59.77;98282.19;4451507;32;33693;-70
2022/04/08 04:35:48;;;;;;;0.70;0.70;;;;;;;12.25;60.08;98287.84;4459799;32;34065;-79
2022/04/08 04:38:15;;;;;;;1.20;0.90;;;;;;;12.11;59.59;98298.63;4467484;32;34463;-77
2022/04/08 04:40:43;;;;;;;1.23;0.80;;;;;;;12.27;58.83;98293.00;4467392;32;34027;-79
2022/04/08 04:43:10;;;;;;;0.80;0.73;;;;;;;12.24;58.11;98299.00;4467087;32;34621;-80
2022/04/08 04:45:39;;;;;;;1.00;0.65;;;;;;;12.36;57.18;98301.28;4460601;32;35032;-69
2022/04/08 04:48:07;;;;;;;1.48;0.90;;;;;;;12.15;57.79;98298.88;4438015;32;34674;-75
2022/04/08 04:50:34;;;;;;;2.30;0.70;;;;;;;12.28;55.13;98298.12;4451871;32;34800;-69
2022/04/08 04:53:03;;;;;;;1.52;0.85;;;;;;;12.44;52.82;98314.19;4451894;32;35095;-70
2022/04/08 04:55:30;;;;;;;0.75;0.62;;;;;;;12.52;51.95;98330.66;4447441;32;35273;-68
2022/04/08 04:57:58;;;;;;;0.80;0.80;;;;;;;12.40;50.89;98327.59;4451429;32;33487;-68
2022/04/08 05:00:25;;;;;;;1.87;0.88;;;;;;;12.44;50.18;98341.38;4452371;32;34089;-69
2022/04/08 05:02:53;;;;;;;1.20;0.70;;;;;;;12.58;49.05;98346.91;4453608;32;33878;-69
2022/04/08 05:05:20;;;;;;;1.27;0.80;;;;;;;12.37;49.63;98349.13;4457673;32;34149;-71
2022/04/08 05:07:47;;;;;;;1.52;0.70;;;;;;;12.60;48.90;98347.41;4469392;32;33636;-70
2022/04/08 05:10:15;;;;;;;1.12;0.80;;;;;;;12.30;47.75;98335.91;4455324;32;34610;-68
2022/04/08 05:12:42;;;;;;;1.00;0.70;;;;;;;12.73;47.67;98335.78;4468733;32;33959;-71
2022/04/08 05:15:11;;;;;;;0.80;0.70;;;;;;;12.79;46.83;98347.41;4465700;32;33868;-69
2022/04/08 05:17:39;;;;;;;1.08;0.65;;;;;;;12.72;46.82;98339.59;4453524;32;34413;-71
2022/04/08 05:20:07;;;;;;;0.70;0.70;;;;;;;12.78;48.18;98349.28;4453542;32;33929;-70
2022/04/08 05:22:36;;;;;;;1.73;0.60;;;;;;;12.81;47.45;98337.81;4453472;32;34745;-70
2022/04/08 05:25:04;;;;;;;1.10;0.90;;;;;;;12.65;47.52;98359.00;4458531;32;34279;-70
2022/04/08 05:27:38;;;;;;;1.58;0.90;;;;;;;12.64;46.95;98359.34;4468670;32;35355;-69
2022/04/08 05:30:08;;;;;;;0.73;0.70;;;;;;;12.89;45.32;98355.37;4467748;32;34050;-69
2022/04/08 05:32:35;;;;;;;1.35;1.00;;;;;;;13.24;45.29;98369.47;4468827;32;33861;-71
2022/04/08 05:35:03;;;;;;;3.30;1.65;;;;;;;13.14;44.40;98367.75;4463536;32;33979;-69
2022/04/08 05:37:31;;;;;;;0.90;0.80;;;;;;;13.24;43.96;98380.34;4453463;32;33577;-71
2022/04/08 05:39:58;;;;;;;1.87;1.00;;;;;;;12.76;43.05;98386.06;4453773;32;34076;-69
2022/04/08 05:42:25;;;;;;;0.75;0.73;;;;;;;12.98;43.95;98388.16;4457838;32;34169;-70
2022/04/08 05:44:53;;;;;;;0.88;0.70;;;;;;;13.12;43.58;98402.63;4457538;32;34336;-69
2022/04/08 05:47:20;;;;;;;0.93;0.80;;;;;;;13.01;46.76;98402.00;4468871;32;33240;-74
2022/04/08 05:49:48;;;;;;;1.02;0.70;;;;;;;12.70;49.49;98391.59;4468680;32;33857;-77
2022/04/08 05:52:15;;;;;;;2.20;0.82;;;;;;;12.31;51.17;98397.38;4469013;32;34015;-77
2022/04/08 05:54:43;;;;;;;1.52;0.90;;;;;;;11.94;49.14;98403.53;4467448;32;33958;-70
2022/04/08 05:57:10;;;;;;;1.85;0.90;;;;;;;11.82;48.78;98422.94;4453050;32;33704;-77
2022/04/08 05:59:39;;;;;;;1.87;0.93;;;;;;;12.17;47.33;98420.94;4453657;32;33858;-70
2022/04/08 06:02:10;;;;;;;4.43;1.17;;;;;;;12.83;45.28;98421.88;4453365;32;34899;-68
2022/04/08 06:04:38;;;;;;;2.65;1.02;;;;;;;12.72;45.60;98434.84;4459504;32;34524;-67
2022/04/08 06:07:05;;;;;;;3.22;1.10;;;;;;;12.98;43.82;98445.34;4453286;32;33486;-69
2022/04/08 06:09:33;;;;;;;2.40;1.10;;;;;;;12.98;42.60;98461.66;4465331;32;33700;-74
2022/04/08 06:12:01;;;;;;;1.25;0.98;;;;;;;12.94;42.81;98466.91;4467939;32;34519;-72
2022/04/08 06:14:30;;;;;;;2.70;1.10;;;;;;;12.56;43.27;98482.44;4468100;32;33913;-78
2022/04/08 06:16:57;;;;;;;1.52;1.10;;;;;;;12.71;43.39;98488.47;4469158;32;33710;-79
2022/04/08 06:19:25;;;;;;;1.52;0.90;;;;;;;13.07;42.67;98489.88;4451363;32;33937;-77
2022/04/08 06:21:54;;;;;;;2.53;1.02;;;;;;;12.65;43.41;98478.75;4453416;32;34995;-75
2022/04/08 06:24:22;;;;;;;2.20;1.02;;;;;;;13.17;41.56;98478.78;4453677;32;34845;-68
2022/04/08 06:26:52;;;;;;;1.70;1.10;;;;;;;12.97;42.37;98479.13;4452807;32;34447;-73
2022/04/08 06:29:19;;;;;;;1.40;1.00;;;;;;;13.16;42.00;98470.94;4455279;32;33957;-73
2022/04/08 06:31:47;;;;;;;2.87;1.05;;;;;;;13.26;42.29;98490.66;4466992;32;35076;-73
2022/04/08 06:34:15;;;;;;;3.60;1.20;;;;;;;13.67;40.41;98486.44;4466790;32;34462;-70
2022/04/08 06:36:42;;;;;;;1.90;0.90;;;;;;;14.10;40.47;98470.63;4467466;32;33509;-79
2022/04/08 06:39:10;;;;;;;2.15;1.05;;;;;;;15.26;37.45;98473.00;4468973;32;33991;-79
2022/04/08 06:41:38;;;;;;;1.30;0.88;;;;;;;15.31;36.43;98467.41;4466741;32;34044;-68
2022/04/08 06:44:05;;;;;;;1.55;0.80;;;;;;;14.70;35.20;98474.31;4465245;32;34927;-68
2022/04/08 06:46:33;;;;;;;2.55;1.42;;;;;;;15.21;37.03;98483.25;4461181;32;34371;-67
2022/04/08 06:49:02;;;;;;;1.98;0.80;;;;;;;16.26;35.44;98492.84;4468330;32;34498;-69
2022/04/08 06:51:30;;;;;;;1.65;0.80;;;;;;;17.78;34.42;98483.69;4464635;32;33422;-71
2022/04/08 06:53:59;;;;;;;1.00;0.70;;;;;;;17.78;32.63;98491.13;4466876;32;34936;-69
2022/04/08 06:56:28;;;;;;;2.00;0.95;;;;;;;18.18;31.43;98477.13;4463838;32;33231;-71
2022/04/08 06:58:55;;;;;;;1.85;0.80;;;;;;;17.55;30.91;98482.31;4468309;32;33882;-79
2022/04/08 07:01:25;;;;;;;1.02;0.75;;;;;;;16.22;34.12;98503.62;4462289;32;34012;-77
2022/04/08 07:03:53;;;;;;;1.05;0.70;;;;;;;16.67;32.19;98494.38;4465966;32;34144;-68
2022/04/08 07:06:20;;;;;;;4.20;1.08;;;;;;;15.91;34.98;98484.50;4474993;32;33727;-77
2022/04/08 07:08:48;;;;;;;2.50;1.02;;;;;;;16.16;34.14;98480.25;4468288;32;33583;-69
2022/04/08 07:11:16;;;;;;;1.42;0.90;;;;;;;16.76;33.74;98490.53;4467778;32;33297;-71
2022/04/08 07:13:43;;;;;;;3.15;1.33;;;;;;;16.10;35.04;98471.38;4464910;32;34997;-70
2022/04/08 07:16:11;;;;;;;3.33;1.35;;;;;;;16.74;32.86;98478.31;4459251;32;33201;-69
2022/04/08 07:18:38;;;;;;;0.88;0.70;;;;;;;16.77;32.95;98518.72;4465127;32;34342;-66
2022/04/08 07:21:06;;;;;;;2.47;1.10;;;;;;;17.54;31.96;98521.84;4455849;32;34232;-73
2022/04/08 07:23:34;;;;;;;2.20;1.00;;;;;;;17.98;31.53;98519.81;4452172;32;34812;-70
2022/04/08 07:26:03;;;;;;;3.03;1.20;;;;;;;18.00;30.26;98493.66;4453319;32;33751;-69
2022/04/08 07:28:32;;;;;;;1.37;0.93;;;;;;;17.32;31.70;98500.88;4453264;32;34524;-72
2022/04/08 07:30:59;;;;;;;2.40;0.90;;;;;;;17.28;33.08;98517.19;4460535;32;34913;-68
2022/04/08 07:33:27;;;;;;;1.80;0.98;;;;;;;18.20;32.82;98518.75;4460234;32;32990;-70
2022/04/08 07:35:55;;;;;;;1.65;1.30;;;;;;;18.61;29.77;98517.28;4459852;32;33326;-68
2022/04/08 07:38:22;;;;;;;2.40;0.98;;;;;;;18.82;30.92;98509.91;4454216;32;34133;-69
2022/04/08 07:40:50;;;;;;;2.22;1.00;;;;;;;18.52;29.98;98513.78;4461544;32;34063;-69
2022/04/08 07:43:19;;;;;;;0.88;0.68;;;;;;;18.60;29.28;98521.97;4460625;32;34216;-68
2022/04/08 07:45:46;;;;;;;1.30;0.80;;;;;;;17.41;33.45;98531.84;4467598;32;34475;-68
2022/04/08 07:48:14;;;;;;;1.52;0.95;;;;;;;16.83;32.79;98541.34;4468614;32;35234;-67
2022/04/08 07:50:42;;;;;;;0.95;0.65;;;;;;;17.13;32.30;98532.19;4468279;32;33802;-67
2022/04/08 07:53:09;;;;;;;2.15;0.80;;;;;;;16.69;33.02;98516.78;4468079;32;35099;-69
2022/04/08 07:55:37;;;;;;;3.67;0.90;;;;;;;15.88;33.31;98517.97;4459735;32;33546;-69
2022/04/08 07:58:05;;;;;;;1.05;0.70;;;;;;;15.01;33.48;98501.75;4457923;32;34055;-70
2022/04/08 08:00:33;;;;;;;1.80;0.90;;;;;;;16.35;31.45;98499.16;4452650;32;34730;-69
2022/04/08 08:03:01;;;;;;;1.25;0.70;;;;;;;16.65;30.59;98505.69;4452485;32;34178;-68
2022/04/08 08:05:31;;;;;;;1.30;0.70;;;;;;;16.10;31.89;98495.19;4447436;32;33511;-68
2022/04/08 08:08:00;;;;;;;0.90;0.77;;;;;;;15.78;32.25;98519.81;4467437;32;33778;-69
2022/04/08 08:10:30;;;;;;;0.95;0.70;;;;;;;14.85;33.02;98522.31;4466719;32;34263;-68
2022/04/08 08:13:00;;;;;;;1.85;0.85;;;;;;;15.10;31.87;98518.22;4466928;32;33931;-69
2022/04/08 08:15:29;;;;;;;1.60;0.77;;;;;;;15.29;31.10;98524.31;4466799;32;34685;-68
2022/04/08 08:17:57;;;;;;;1.40;0.70;;;;;;;14.94;31.74;98548.56;4468196;32;35202;-68
2022/04/08 08:20:25;;;;;;;2.40;0.70;;;;;;;15.44;31.57;98553.16;4452565;32;35051;-68
2022/04/08 08:22:53;;;;;;;1.77;0.80;;;;;;;15.28;31.81;98566.41;4467970;32;34233;-68
2022/04/08 08:25:21;;;;;;;2.22;0.77;;;;;;;15.35;31.84;98560.50;4466769;32;33553;-68
2022/04/08 08:27:54;;;;;;;1.08;0.73;;;;;;;16.23;30.87;98570.09;4467971;32;33972;-67
2022/04/08 08:30:22;;;;;;;0.95;0.80;;;;;;;15.94;31.23;98582.34;4461079;32;34046;-68
2022/04/08 08:32:50;;;;;;;1.58;0.90;;;;;;;15.70;30.03;98571.69;4452902;32;34130;-68
2022/04/08 08:35:18;;;;;;;1.65;0.80;;;;;;;15.85;30.99;98595.94;4453142;32;33762;-72
2022/04/08 08:37:49;;;;;;;1.12;0.68;;;;;;;15.62;31.25;98600.59;4467854;32;35274;-70
2022/04/08 08:40:17;;;;;;;1.55;0.80;;;;;;;16.42;31.15;98578.88;4468158;32;34076;-71
2022/04/08 08:42:45;;;;;;;0.73;0.70;;;;;;;16.51;31.13;98598.87;4456713;32;34097;-69
2022/04/08 08:45:13;;;;;;;0.90;0.60;;;;;;;15.89;30.90;98596.94;4450949;32;33642;-70
2022/04/08 08:47:45;;;;;;;1.00;0.70;;;;;;;14.88;32.79;98600.88;4466993;32;34717;-68
2022/04/08 08:50:13;;;;;;;0.75;0.70;;;;;;;15.23;32.12;98601.25;4452180;32;33798;-73
2022/04/08 08:52:42;;;;;;;0.88;0.77;;;;;;;15.72;30.55;98608.59;4461330;32;34977;-70
2022/04/08 08:55:15;;;;;;;;;;;;;;;15.29;31.70;98619.13;4464143;32;33770;-67
2022/04/08 08:57:45;;;;;;;0.70;0.68;;;;;;;15.52;32.26;98600.84;4466520;32;34248;-71
2022/04/08 09:00:13;;;;;;;1.05;0.70;;;;;;;15.87;30.26;98618.31;4460188;32;33890;-70
2022/04/08 09:02:45;;;;;;;1.50;0.80;;;;;;;15.54;31.06;98624.00;4457132;32;34309;-72
2022/04/08 09:05:14;;;;;;;0.75;0.75;;;;;;;15.41;31.48;98635.81;4454086;32;34267;-72
2022/04/08 09:07:42;;;;;;;1.15;0.80;;;;;;;15.75;31.76;98618.91;4452334;32;33901;-70
2022/04/08 09:10:09;;;;;;;1.00;0.62;;;;;;;16.17;29.04;98610.47;4466656;32;34121;-66
2022/04/08 09:12:37;;;;;;;1.75;0.75;;;;;;;16.65;30.45;98606.16;4453503;32;34892;-69
2022/04/08 09:15:05;;;;;;;0.60;0.60;;;;;;;16.96;28.85;98615.16;4463482;32;33503;-72
2022/04/08 09:17:32;;;;;;;1.37;0.90;;;;;;;17.15;30.27;98622.31;4452130;32;33546;-73
2022/04/08 09:20:00;;;;;;;1.95;0.90;;;;;;;17.35;29.14;98621.69;4461300;32;35101;-71
2022/04/08 09:22:32;;;;;;;1.23;0.62;;;;;;;17.30;28.06;98610.06;4467489;32;34236;-67
2022/04/08 09:25:10;;;;;;;0.62;0.60;;;;;;;17.19;29.47;98631.47;4465496;32;33970;-71
2022/04/08 09:27:39;;;;;;;4.72;0.90;;;;;;;17.19;29.08;98642.44;4467365;32;34240;-66
2022/04/08 09:30:08;;;;;;;2.25;0.60;;;;;;;17.32;28.24;98641.53;4456844;32;34960;-67
2022/04/08 09:32:36;;;;;;;0.60;0.60;;;;;;;17.76;27.52;98638.78;4450584;32;34093;-67
2022/04/08 09:35:04;;;;;;;0.60;0.60;;;;;;;18.10;26.94;98656.38;4452804;32;33809;-71
2022/04/08 09:37:31;;;;;;;0.60;0.50;;;;;;;18.42;25.11;98646.75;4465074;32;33578;-71
2022/04/08 09:40:00;;;;;;;0.50;0.50;;;;;;;18.14;26.82;98647.19;4451637;32;34197;-72
2022/04/08 09:42:42;;;;;;;0.60;0.52;;;;;;;18.28;27.42;98657.97;4439372;32;34090;-72
2022/04/08 09:45:10;;;;;;;1.23;0.70;;;;;;;18.53;25.75;98661.78;4454354;32;33464;-71
2022/04/08 09:47:39;;;;;;;0.60;0.60;;;;;;;17.92;28.23;98656.38;4461003;32;33796;-72
2022/04/08 09:50:10;;;;;;;0.55;0.55;;;;;;;18.51;28.16;98644.00;4455478;32;34059;-71
2022/04/08 09:52:39;;;;;;;1.27;0.70;;;;;;;18.71;26.94;98650.72;4461916;32;34032;-69
2022/04/08 09:55:08;;;;;;;1.02;0.70;;;;;;;18.99;26.42;98649.16;4463881;32;34520;-69
2022/04/08 09:57:40;;;;;;;0.95;0.80;;;;;;;19.53;25.73;98656.75;4455803;32;33095;-73
2022/04/08 10:00:08;;;;;;;0.60;0.60;;;;;;;18.94;26.59;98645.78;4453581;32;34252;-74
2022/04/08 10:02:40;;;;;;;1.12;0.70;;;;;;;19.13;25.26;98646.16;4454189;32;34205;-71
2022/04/08 10:05:09;;;;;;;1.12;0.60;;;;;;;19.43;24.84;98651.63;4466486;32;35073;-72
2022/04/08 10:07:38;;;;;;;1.10;0.55;;;;;;;18.47;27.07;98654.84;4469550;32;33540;-71
2022/04/08 10:10:36;;;;;;;1.23;0.80;;;;;;;18.87;26.92;98646.28;4456056;32;33695;-73
2022/04/08 10:13:14;;;;;;;0.98;0.80;;;;;;;19.00;24.58;98659.00;4467439;32;34077;-69
2022/04/08 10:15:44;;;;;;;1.00;0.90;;;;;;;18.48;25.54;98663.88;4466299;32;33078;-68
2022/04/08 10:18:11;;;;;;;1.58;0.60;;;;;;;18.51;26.52;98664.03;4454723;32;34828;-70
2022/04/08 10:20:39;;;;;;;0.50;0.50;;;;;;;18.87;26.67;98664.75;4466257;32;34213;-73
2022/04/08 10:23:09;;;;;;;0.70;0.60;;;;;;;19.34;26.01;98670.16;4458713;32;34160;-70
2022/04/08 10:25:37;;;;;;;0.65;0.65;;;;;;;19.51;23.95;98661.78;4462268;32;33382;-67
2022/04/08 10:28:05;;;;;;;0.85;0.75;;;;;;;19.27;23.17;98665.19;4473304;32;33701;-67
2022/04/08 10:30:35;;;;;;;2.17;0.75;;;;;;;19.13;24.76;98668.16;4461960;32;34763;-70
2022/04/08 10:33:06;;;;;;;0.60;0.60;;;;;;;18.89;26.00;98666.00;4453391;32;34069;-70
2022/04/08 10:35:34;;;;;;;1.42;0.62;;;;;;;19.46;28.00;98656.47;4464482;32;33581;-70
2022/04/08 10:38:06;;;;;;;0.75;0.60;;;;;;;20.33;25.42;98657.69;4454103;32;34899;-70
2022/04/08 10:40:39;;;;;;;1.50;0.73;;;;;;;19.91;27.13;98658.56;4466132;32;35063;-71
2022/04/08 10:43:08;;;;;;;1.33;0.80;;;;;;;20.35;25.23;98667.22;4453154;32;33743;-71
2022/04/08 10:45:37;;;;;;;4.87;0.60;;;;;;;20.69;23.31;98656.97;4454590;32;33594;-70
2022/04/08 10:48:10;;;;;;;0.95;0.80;;;;;;;20.61;24.77;98655.94;4456574;32;34650;-70
2022/04/08 10:50:39;;;;;;;1.67;0.60;;;;;;;20.36;23.70;98660.56;4453349;32;35089;-72
2022/04/08 10:53:08;;;;;;;3.03;0.80;;;;;;;20.55;23.29;98660.03;4450869;32;33998;-71
2022/04/08 10:55:52;;;;;;;1.02;0.70;;;;;;;20.36;22.38;98654.25;4454875;32;34354;-71
2022/04/08 10:58:33;;;;;;;2.35;0.88;;;;;;;20.06;22.99;98662.63;4458753;32;34860;-70
2022/04/08 11:01:15;;;;;;;0.60;0.60;;;;;;;19.49;22.79;98655.81;4467414;32;35007;-73
2022/04/08 11:04:00;;;;;;;1.42;0.75;;;;;;;19.21;26.30;98661.00;4458739;32;34293;-71
2022/04/08 11:06:32;;;;;;;1.37;0.70;;;;;;;19.15;26.10;98665.06;4454746;32;33347;-71
2022/04/08 11:09:11;;;;;;;1.02;0.68;;;;;;;19.18;26.12;98673.47;4454308;32;33776;-71
2022/04/08 11:11:40;;;;;;;1.23;0.70;;;;;;;19.51;24.84;98658.22;4453544;32;35045;-72
2022/04/08 11:14:09;;;;;;;0.60;0.60;;;;;;;19.29;25.02;98662.06;4457321;32;34976;-72
2022/04/08 11:16:38;;;;;;;1.15;0.73;;;;;;;19.34;25.64;98668.19;4484751;32;34475;-72
2022/04/08 11:19:07;;;;;;;1.70;0.60;;;;;;;19.54;25.96;98674.06;4458792;32;34078;-72
2022/04/08 11:21:36;;;;;;;1.15;0.75;;;;;;;19.60;25.12;98679.03;4468469;32;35119;-71
2022/04/08 11:24:04;;;;;;;0.68;0.62;;;;;;;19.60;25.39;98681.75;4467163;32;35065;-71
2022/04/08 11:26:47;;;;;;;1.08;0.70;;;;;;;19.86;25.27;98684.34;4468627;32;33631;-71
2022/04/08 11:29:27;;;;;;;1.67;0.77;;;;;;;19.37;27.22;98684.06;4467883;32;34037;-71
2022/04/08 11:32:09;;;;;;;1.35;1.10;;;;;;;19.32;26.42;98673.22;4453785;32;34360;-72
2022/04/08 11:34:37;;;;;;;0.80;0.80;;;;;;;19.85;26.58;98676.44;4452320;32;34636;-73
2022/04/08 11:37:05;;;;;;;2.08;1.17;;;;;;;19.74;25.53;98684.31;4452443;32;33311;-73
2022/04/08 11:39:32;;;;;;;0.60;0.60;;;;;;;19.25;27.60;98682.00;4462599;32;33970;-74
2022/04/08 11:42:03;;;;;;;0.70;0.70;;;;;;;19.24;29.08;98680.41;4452519;32;34136;-73